sensor_id;sensor_type;location;lat;lon;timestamp;temperature;humidity
6581;DHT22;3324;50.796;7.228;2023-04-03T00:00:14;5.80;99.90
6581;DHT22;3324;50.796;7.228;2023-04-03T00:02:39;6.00;99.90
6581;DHT22;3324;50.796;7.228;2023-04-03T00:05:06;6.00;99.90
6581;DHT22;3324;50.796;7.228;2023-04-03T00:07:32;6.00;99.90
6581;DHT22;3324;50.796;7.228;2023-04-03T00:09:58;5.90;99.90
6581;DHT22;3324;50.796;7.228;2023-04-03T00:12:23;5.90;99.90
6581;DHT22;3324;50.796;7.228;2023-04-03T00:14:49;6.00;99.90
6581;DHT22;3324;50.796;7.228;2023-04-03T00:17:15;6.00;99.90
6581;DHT22;3324;50.796;7.228;2023-04-03T00:19:40;5.90;99.90
6581;DHT22;3324;50.796;7.228;2023-04-03T00:22:06;5.90;99.90
6581;DHT22;3324;50.796;7.228;2023-04-03T00:24:31;5.90;99.90
6581;DHT22;3324;50.796;7.228;2023-04-03T00:26:57;5.80;99.90
6581;DHT22;3324;50.796;7.228;2023-04-03T00:29:22;5.80;99.90
6581;DHT22;3324;50.796;7.228;2023-04-03T00:31:48;5.80;99.90
6581;DHT22;3324;50.796;7.228;2023-04-03T00:34:14;5.90;99.90
6581;DHT22;3324;50.796;7.228;2023-04-03T00:36:39;5.80;99.90
6581;DHT22;3324;50.796;7.228;2023-04-03T00:39:05;5.80;99.90
6581;DHT22;3324;50.796;7.228;2023-04-03T00:41:31;5.80;99.90
6581;DHT22;3324;50.796;7.228;2023-04-03T00:43:57;5.80;99.90
6581;DHT22;3324;50.796;7.228;2023-04-03T00:46:23;5.80;99.90
6581;DHT22;3324;50.796;7.228;2023-04-03T00:48:49;5.80;99.90
6581;DHT22;3324;50.796;7.228;2023-04-03T00:51:19;5.80;99.90
6581;DHT22;3324;50.796;7.228;2023-04-03T00:53:50;5.80;99.90
6581;DHT22;3324;50.796;7.228;2023-04-03T00:56:21;5.90;99.90
6581;DHT22;3324;50.796;7.228;2023-04-03T00:59:10;5.80;99.90
6581;DHT22;3324;50.796;7.228;2023-04-03T01:01:37;5.80;99.90
6581;DHT22;3324;50.796;7.228;2023-04-03T01:04:03;5.70;99.90
6581;DHT22;3324;50.796;7.228;2023-04-03T01:06:34;5.70;99.90
6581;DHT22;3324;50.796;7.228;2023-04-03T01:09:01;5.70;99.90
6581;DHT22;3324;50.796;7.228;2023-04-03T01:11:26;5.70;99.90
6581;DHT22;3324;50.796;7.228;2023-04-03T01:13:52;5.80;99.90
6581;DHT22;3324;50.796;7.228;2023-04-03T01:19:44;5.70;99.90
6581;DHT22;3324;50.796;7.228;2023-04-03T01:22:19;5.70;99.90
6581;DHT22;3324;50.796;7.228;2023-04-03T01:24:48;5.70;99.90
6581;DHT22;3324;50.796;7.228;2023-04-03T01:27:14;5.80;99.90
6581;DHT22;3324;50.796;7.228;2023-04-03T01:29:40;5.70;99.90
6581;DHT22;3324;50.796;7.228;2023-04-03T01:32:07;5.70;99.90
6581;DHT22;3324;50.796;7.228;2023-04-03T01:34:32;5.80;99.90
6581;DHT22;3324;50.796;7.228;2023-04-03T01:36:58;5.60;99.90
6581;DHT22;3324;50.796;7.228;2023-04-03T01:39:23;5.60;99.90
6581;DHT22;3324;50.796;7.228;2023-04-03T01:41:49;5.50;99.90
6581;DHT22;3324;50.796;7.228;2023-04-03T01:44:15;5.60;99.90
6581;DHT22;3324;50.796;7.228;2023-04-03T01:46:40;5.60;99.90
6581;DHT22;3324;50.796;7.228;2023-04-03T01:49:07;5.50;99.90
6581;DHT22;3324;50.796;7.228;2023-04-03T01:51:33;5.40;99.90
6581;DHT22;3324;50.796;7.228;2023-04-03T01:53:59;5.50;99.90
6581;DHT22;3324;50.796;7.228;2023-04-03T01:56:24;5.40;99.90
6581;DHT22;3324;50.796;7.228;2023-04-03T01:58:51;5.30;99.90
6581;DHT22;3324;50.796;7.228;2023-04-03T02:01:17;5.50;99.90
6581;DHT22;3324;50.796;7.228;2023-04-03T02:03:43;5.40;99.90
6581;DHT22;3324;50.796;7.228;2023-04-03T02:06:08;5.40;99.90
6581;DHT22;3324;50.796;7.228;2023-04-03T02:08:34;5.30;99.90
6581;DHT22;3324;50.796;7.228;2023-04-03T02:11:00;5.30;99.90
6581;DHT22;3324;50.796;7.228;2023-04-03T02:13:25;5.20;99.90
6581;DHT22;3324;50.796;7.228;2023-04-03T02:15:51;5.20;99.90
6581;DHT22;3324;50.796;7.228;2023-04-03T02:18:17;5.20;99.90
6581;DHT22;3324;50.796;7.228;2023-04-03T02:20:43;5.30;99.90
6581;DHT22;3324;50.796;7.228;2023-04-03T02:23:09;5.40;99.90
6581;DHT22;3324;50.796;7.228;2023-04-03T02:25:34;5.30;99.90
6581;DHT22;3324;50.796;7.228;2023-04-03T02:28:00;5.20;99.90
6581;DHT22;3324;50.796;7.228;2023-04-03T02:30:26;5.30;99.90
6581;DHT22;3324;50.796;7.228;2023-04-03T02:32:51;5.40;99.90
6581;DHT22;3324;50.796;7.228;2023-04-03T02:35:17;5.30;99.90
6581;DHT22;3324;50.796;7.228;2023-04-03T02:37:43;5.20;99.90
6581;DHT22;3324;50.796;7.228;2023-04-03T02:40:09;5.30;99.90
6581;DHT22;3324;50.796;7.228;2023-04-03T02:42:34;5.20;99.90
6581;DHT22;3324;50.796;7.228;2023-04-03T02:45:00;5.10;99.90
6581;DHT22;3324;50.796;7.228;2023-04-03T02:47:27;5.00;99.90
6581;DHT22;3324;50.796;7.228;2023-04-03T02:49:53;5.10;99.90
6581;DHT22;3324;50.796;7.228;2023-04-03T02:52:19;5.20;99.90
6581;DHT22;3324;50.796;7.228;2023-04-03T02:54:44;5.30;99.90
6581;DHT22;3324;50.796;7.228;2023-04-03T02:57:10;5.10;99.90
6581;DHT22;3324;50.796;7.228;2023-04-03T02:59:36;5.20;99.90
6581;DHT22;3324;50.796;7.228;2023-04-03T03:02:06;5.20;99.90
6581;DHT22;3324;50.796;7.228;2023-04-03T03:04:32;5.10;99.90
6581;DHT22;3324;50.796;7.228;2023-04-03T03:06:57;5.00;99.90
6581;DHT22;3324;50.796;7.228;2023-04-03T03:09:23;4.90;99.90
6581;DHT22;3324;50.796;7.228;2023-04-03T03:11:49;4.80;99.90
6581;DHT22;3324;50.796;7.228;2023-04-03T03:14:14;4.80;99.90
6581;DHT22;3324;50.796;7.228;2023-04-03T03:16:40;4.90;99.90
6581;DHT22;3324;50.796;7.228;2023-04-03T03:19:05;5.00;99.90
6581;DHT22;3324;50.796;7.228;2023-04-03T03:21:32;4.80;99.90
6581;DHT22;3324;50.796;7.228;2023-04-03T03:23:57;4.70;99.90
6581;DHT22;3324;50.796;7.228;2023-04-03T03:26:23;4.80;99.90
6581;DHT22;3324;50.796;7.228;2023-04-03T03:28:49;4.70;99.90
6581;DHT22;3324;50.796;7.228;2023-04-03T03:31:14;4.70;99.90
6581;DHT22;3324;50.796;7.228;2023-04-03T03:33:40;4.70;99.90
6581;DHT22;3324;50.796;7.228;2023-04-03T03:36:06;4.60;99.90
6581;DHT22;3324;50.796;7.228;2023-04-03T03:38:32;4.60;99.90
6581;DHT22;3324;50.796;7.228;2023-04-03T03:40:57;4.70;99.90
6581;DHT22;3324;50.796;7.228;2023-04-03T03:43:23;4.80;99.90
6581;DHT22;3324;50.796;7.228;2023-04-03T03:45:52;4.60;99.90
6581;DHT22;3324;50.796;7.228;2023-04-03T03:48:19;4.70;99.90
6581;DHT22;3324;50.796;7.228;2023-04-03T03:50:45;4.70;99.90
6581;DHT22;3324;50.796;7.228;2023-04-03T03:53:11;4.60;99.90
6581;DHT22;3324;50.796;7.228;2023-04-03T03:55:36;4.60;99.90
6581;DHT22;3324;50.796;7.228;2023-04-03T03:58:02;4.60;99.90
6581;DHT22;3324;50.796;7.228;2023-04-03T04:00:29;4.60;99.90
6581;DHT22;3324;50.796;7.228;2023-04-03T04:02:55;4.50;99.90
6581;DHT22;3324;50.796;7.228;2023-04-03T04:05:21;4.50;99.90
6581;DHT22;3324;50.796;7.228;2023-04-03T04:07:47;4.40;99.90
6581;DHT22;3324;50.796;7.228;2023-04-03T04:10:12;4.40;99.90
6581;DHT22;3324;50.796;7.228;2023-04-03T04:12:39;4.40;99.90
6581;DHT22;3324;50.796;7.228;2023-04-03T04:15:05;4.30;99.90
6581;DHT22;3324;50.796;7.228;2023-04-03T04:17:31;4.30;99.90
6581;DHT22;3324;50.796;7.228;2023-04-03T04:19:56;4.30;99.90
6581;DHT22;3324;50.796;7.228;2023-04-03T04:22:22;4.30;99.90
6581;DHT22;3324;50.796;7.228;2023-04-03T04:24:48;4.20;99.90
6581;DHT22;3324;50.796;7.228;2023-04-03T04:27:13;4.20;99.90
6581;DHT22;3324;50.796;7.228;2023-04-03T04:29:39;4.20;99.90
6581;DHT22;3324;50.796;7.228;2023-04-03T04:32:05;4.20;99.90
6581;DHT22;3324;50.796;7.228;2023-04-03T04:34:30;4.20;99.90
6581;DHT22;3324;50.796;7.228;2023-04-03T04:36:56;4.10;99.90
6581;DHT22;3324;50.796;7.228;2023-04-03T04:39:21;4.20;99.90
6581;DHT22;3324;50.796;7.228;2023-04-03T04:41:47;4.10;99.90
6581;DHT22;3324;50.796;7.228;2023-04-03T04:44:13;4.10;99.90
6581;DHT22;3324;50.796;7.228;2023-04-03T04:46:38;4.10;99.90
6581;DHT22;3324;50.796;7.228;2023-04-03T04:49:06;4.00;99.90
6581;DHT22;3324;50.796;7.228;2023-04-03T04:51:32;3.90;99.90
6581;DHT22;3324;50.796;7.228;2023-04-03T04:53:57;3.90;99.90
6581;DHT22;3324;50.796;7.228;2023-04-03T04:56:23;3.90;99.90
6581;DHT22;3324;50.796;7.228;2023-04-03T04:58:48;3.90;99.90
6581;DHT22;3324;50.796;7.228;2023-04-03T05:01:14;3.90;99.90
6581;DHT22;3324;50.796;7.228;2023-04-03T05:03:40;3.80;99.90
6581;DHT22;3324;50.796;7.228;2023-04-03T05:06:06;3.80;99.90
6581;DHT22;3324;50.796;7.228;2023-04-03T05:08:31;3.80;99.90
6581;DHT22;3324;50.796;7.228;2023-04-03T05:10:57;3.80;99.90
6581;DHT22;3324;50.796;7.228;2023-04-03T05:13:23;3.80;99.90
6581;DHT22;3324;50.796;7.228;2023-04-03T05:15:48;3.80;99.90
6581;DHT22;3324;50.796;7.228;2023-04-03T05:18:17;3.80;99.90
6581;DHT22;3324;50.796;7.228;2023-04-03T05:20:43;3.80;99.90
6581;DHT22;3324;50.796;7.228;2023-04-03T05:23:09;3.70;99.90
6581;DHT22;3324;50.796;7.228;2023-04-03T05:25:37;3.70;99.90
6581;DHT22;3324;50.796;7.228;2023-04-03T05:28:03;3.80;99.90
6581;DHT22;3324;50.796;7.228;2023-04-03T05:30:29;3.70;99.90
6581;DHT22;3324;50.796;7.228;2023-04-03T05:32:54;3.80;99.90
6581;DHT22;3324;50.796;7.228;2023-04-03T05:35:20;3.80;99.90
6581;DHT22;3324;50.796;7.228;2023-04-03T05:37:46;3.80;99.90
6581;DHT22;3324;50.796;7.228;2023-04-03T05:40:12;3.80;99.90
6581;DHT22;3324;50.796;7.228;2023-04-03T05:42:38;3.80;99.90
6581;DHT22;3324;50.796;7.228;2023-04-03T05:45:04;3.80;99.90
6581;DHT22;3324;50.796;7.228;2023-04-03T05:47:30;3.80;99.90
6581;DHT22;3324;50.796;7.228;2023-04-03T05:49:56;3.90;99.90
6581;DHT22;3324;50.796;7.228;2023-04-03T05:52:33;3.90;99.90
6581;DHT22;3324;50.796;7.228;2023-04-03T05:55:00;4.00;99.90
6581;DHT22;3324;50.796;7.228;2023-04-03T05:57:26;4.10;99.90
6581;DHT22;3324;50.796;7.228;2023-04-03T05:59:52;4.10;99.90
6581;DHT22;3324;50.796;7.228;2023-04-03T06:02:19;4.20;99.90
6581;DHT22;3324;50.796;7.228;2023-04-03T06:04:46;4.20;99.90
6581;DHT22;3324;50.796;7.228;2023-04-03T06:07:16;4.20;99.90
6581;DHT22;3324;50.796;7.228;2023-04-03T06:09:43;4.30;99.90
6581;DHT22;3324;50.796;7.228;2023-04-03T06:12:09;4.30;99.90
6581;DHT22;3324;50.796;7.228;2023-04-03T06:14:35;4.40;99.90
6581;DHT22;3324;50.796;7.228;2023-04-03T06:17:01;4.40;99.90
6581;DHT22;3324;50.796;7.228;2023-04-03T06:19:27;4.50;99.90
6581;DHT22;3324;50.796;7.228;2023-04-03T06:21:53;4.50;99.90
6581;DHT22;3324;50.796;7.228;2023-04-03T06:24:19;4.50;99.90
6581;DHT22;3324;50.796;7.228;2023-04-03T06:26:46;4.60;99.90
6581;DHT22;3324;50.796;7.228;2023-04-03T06:29:12;4.60;99.90
6581;DHT22;3324;50.796;7.228;2023-04-03T06:31:38;4.60;99.90
6581;DHT22;3324;50.796;7.228;2023-04-03T06:34:04;4.70;99.90
6581;DHT22;3324;50.796;7.228;2023-04-03T06:36:31;4.80;99.90
6581;DHT22;3324;50.796;7.228;2023-04-03T06:38:57;4.90;99.90
6581;DHT22;3324;50.796;7.228;2023-04-03T06:41:22;4.90;99.90
6581;DHT22;3324;50.796;7.228;2023-04-03T06:43:48;4.90;99.90
6581;DHT22;3324;50.796;7.228;2023-04-03T06:46:15;5.00;99.90
6581;DHT22;3324;50.796;7.228;2023-04-03T06:48:42;5.00;99.90
6581;DHT22;3324;50.796;7.228;2023-04-03T06:51:15;5.10;99.90
6581;DHT22;3324;50.796;7.228;2023-04-03T06:53:42;5.10;99.90
6581;DHT22;3324;50.796;7.228;2023-04-03T06:56:08;5.20;99.90
6581;DHT22;3324;50.796;7.228;2023-04-03T06:58:33;5.30;99.90
6581;DHT22;3324;50.796;7.228;2023-04-03T07:00:59;5.30;99.90
6581;DHT22;3324;50.796;7.228;2023-04-03T07:03:25;5.40;99.90
6581;DHT22;3324;50.796;7.228;2023-04-03T07:05:51;5.40;99.90
6581;DHT22;3324;50.796;7.228;2023-04-03T07:08:16;5.50;99.90
6581;DHT22;3324;50.796;7.228;2023-04-03T07:10:42;5.60;99.90
6581;DHT22;3324;50.796;7.228;2023-04-03T07:13:07;5.60;99.90
6581;DHT22;3324;50.796;7.228;2023-04-03T07:15:33;5.60;99.90
6581;DHT22;3324;50.796;7.228;2023-04-03T07:17:59;5.70;99.90
6581;DHT22;3324;50.796;7.228;2023-04-03T07:20:25;5.70;99.90
6581;DHT22;3324;50.796;7.228;2023-04-03T07:22:50;5.70;99.90
6581;DHT22;3324;50.796;7.228;2023-04-03T07:25:16;5.80;99.90
6581;DHT22;3324;50.796;7.228;2023-04-03T07:27:42;5.90;99.90
6581;DHT22;3324;50.796;7.228;2023-04-03T07:30:08;5.90;99.90
6581;DHT22;3324;50.796;7.228;2023-04-03T07:32:34;6.00;99.90
6581;DHT22;3324;50.796;7.228;2023-04-03T07:35:00;6.00;99.90
6581;DHT22;3324;50.796;7.228;2023-04-03T07:37:26;6.10;99.90
6581;DHT22;3324;50.796;7.228;2023-04-03T07:39:51;6.00;99.90
6581;DHT22;3324;50.796;7.228;2023-04-03T07:42:17;6.00;99.90
6581;DHT22;3324;50.796;7.228;2023-04-03T07:44:43;6.00;99.90
6581;DHT22;3324;50.796;7.228;2023-04-03T07:47:08;6.00;99.90
6581;DHT22;3324;50.796;7.228;2023-04-03T07:49:34;6.00;99.90
6581;DHT22;3324;50.796;7.228;2023-04-03T07:52:03;6.00;99.90
6581;DHT22;3324;50.796;7.228;2023-04-03T07:54:29;6.10;99.90
6581;DHT22;3324;50.796;7.228;2023-04-03T07:56:55;6.30;99.90
6581;DHT22;3324;50.796;7.228;2023-04-03T07:59:22;6.30;99.90
6581;DHT22;3324;50.796;7.228;2023-04-03T08:01:47;6.30;99.90
6581;DHT22;3324;50.796;7.228;2023-04-03T08:04:13;6.30;99.90
6581;DHT22;3324;50.796;7.228;2023-04-03T08:06:38;6.40;99.90
6581;DHT22;3324;50.796;7.228;2023-04-03T08:09:04;6.40;99.90
6581;DHT22;3324;50.796;7.228;2023-04-03T08:11:30;6.40;99.90
6581;DHT22;3324;50.796;7.228;2023-04-03T08:13:56;6.50;99.90
6581;DHT22;3324;50.796;7.228;2023-04-03T08:16:23;6.60;99.90
6581;DHT22;3324;50.796;7.228;2023-04-03T08:18:50;6.60;99.90
6581;DHT22;3324;50.796;7.228;2023-04-03T08:21:16;6.70;99.90
6581;DHT22;3324;50.796;7.228;2023-04-03T08:23:42;6.80;99.90
6581;DHT22;3324;50.796;7.228;2023-04-03T08:26:15;7.00;99.90
6581;DHT22;3324;50.796;7.228;2023-04-03T08:28:42;7.10;99.90
6581;DHT22;3324;50.796;7.228;2023-04-03T08:31:10;7.10;99.90
6581;DHT22;3324;50.796;7.228;2023-04-03T08:33:37;7.20;99.90
6581;DHT22;3324;50.796;7.228;2023-04-03T08:36:04;7.30;99.90
6581;DHT22;3324;50.796;7.228;2023-04-03T08:38:30;7.40;99.90
6581;DHT22;3324;50.796;7.228;2023-04-03T08:41:20;7.40;99.90
6581;DHT22;3324;50.796;7.228;2023-04-03T08:44:15;7.50;99.90
6581;DHT22;3324;50.796;7.228;2023-04-03T08:49:59;7.40;99.90
6581;DHT22;3324;50.796;7.228;2023-04-03T08:52:41;7.40;99.90
6581;DHT22;3324;50.796;7.228;2023-04-03T08:55:34;7.50;99.90
6581;DHT22;3324;50.796;7.228;2023-04-03T08:58:11;7.70;99.90
6581;DHT22;3324;50.796;7.228;2023-04-03T09:03:12;7.90;99.90
6581;DHT22;3324;50.796;7.228;2023-04-03T09:08:05;8.20;99.90
6581;DHT22;3324;50.796;7.228;2023-04-03T09:10:34;8.30;99.90
6581;DHT22;3324;50.796;7.228;2023-04-03T09:13:08;8.30;99.90
6581;DHT22;3324;50.796;7.228;2023-04-03T09:15:38;8.20;99.90
6581;DHT22;3324;50.796;7.228;2023-04-03T09:18:21;8.20;99.90
6581;DHT22;3324;50.796;7.228;2023-04-03T09:23:53;8.10;99.90
6581;DHT22;3324;50.796;7.228;2023-04-03T09:26:29;8.20;99.90
6581;DHT22;3324;50.796;7.228;2023-04-03T09:28:59;8.30;99.90
6581;DHT22;3324;50.796;7.228;2023-04-03T09:31:41;8.40;99.90
6581;DHT22;3324;50.796;7.228;2023-04-03T09:34:20;8.50;99.90
6581;DHT22;3324;50.796;7.228;2023-04-03T09:36:54;8.50;99.90
6581;DHT22;3324;50.796;7.228;2023-04-03T09:39:25;8.60;99.90
6581;DHT22;3324;50.796;7.228;2023-04-03T09:41:56;8.60;99.90
6581;DHT22;3324;50.796;7.228;2023-04-03T09:44:25;8.60;99.90
6581;DHT22;3324;50.796;7.228;2023-04-03T09:46:51;8.50;99.90
6581;DHT22;3324;50.796;7.228;2023-04-03T09:49:17;8.50;99.90
6581;DHT22;3324;50.796;7.228;2023-04-03T09:51:44;8.60;99.90
6581;DHT22;3324;50.796;7.228;2023-04-03T09:56:54;8.80;99.90
6581;DHT22;3324;50.796;7.228;2023-04-03T09:59:21;8.80;99.90
6581;DHT22;3324;50.796;7.228;2023-04-03T10:04:40;9.00;99.90
6581;DHT22;3324;50.796;7.228;2023-04-03T10:07:27;9.10;99.90
6581;DHT22;3324;50.796;7.228;2023-04-03T10:09:58;9.20;99.90
6581;DHT22;3324;50.796;7.228;2023-04-03T10:12:24;9.40;99.90
6581;DHT22;3324;50.796;7.228;2023-04-03T10:14:54;9.50;99.90
6581;DHT22;3324;50.796;7.228;2023-04-03T10:36:26;9.60;96.80
6581;DHT22;3324;50.796;7.228;2023-04-03T10:44:17;9.70;96.80
6581;DHT22;3324;50.796;7.228;2023-04-03T10:46:59;10.00;97.60
6581;DHT22;3324;50.796;7.228;2023-04-03T10:49:49;9.90;97.10
6581;DHT22;3324;50.796;7.228;2023-04-03T10:52:23;10.10;97.90
6581;DHT22;3324;50.796;7.228;2023-04-03T10:57:36;10.20;96.80
6581;DHT22;3324;50.796;7.228;2023-04-03T11:00:05;10.30;95.80
6581;DHT22;3324;50.796;7.228;2023-04-03T11:02:45;10.20;94.40
6581;DHT22;3324;50.796;7.228;2023-04-03T11:07:53;9.90;96.40
6581;DHT22;3324;50.796;7.228;2023-04-03T11:10:35;10.20;95.40
6581;DHT22;3324;50.796;7.228;2023-04-03T11:13:34;10.20;94.10
6581;DHT22;3324;50.796;7.228;2023-04-03T11:16:03;10.40;94.00
6581;DHT22;3324;50.796;7.228;2023-04-03T11:18:43;10.50;94.30
6581;DHT22;3324;50.796;7.228;2023-04-03T11:21:35;10.50;93.50
6581;DHT22;3324;50.796;7.228;2023-04-03T11:24:05;10.80;95.40
6581;DHT22;3324;50.796;7.228;2023-04-03T11:26:40;10.80;92.60
6581;DHT22;3324;50.796;7.228;2023-04-03T11:29:13;11.00;95.00
6581;DHT22;3324;50.796;7.228;2023-04-03T11:34:46;11.10;90.80
6581;DHT22;3324;50.796;7.228;2023-04-03T11:37:15;11.30;92.30
6581;DHT22;3324;50.796;7.228;2023-04-03T11:39:54;11.40;90.80
6581;DHT22;3324;50.796;7.228;2023-04-03T11:42:37;11.40;92.20
6581;DHT22;3324;50.796;7.228;2023-04-03T11:45:28;11.50;92.10
6581;DHT22;3324;50.796;7.228;2023-04-03T11:50:49;11.70;92.00
6581;DHT22;3324;50.796;7.228;2023-04-03T12:00:52;11.70;86.20
6581;DHT22;3324;50.796;7.228;2023-04-03T12:08:29;11.60;86.50
6581;DHT22;3324;50.796;7.228;2023-04-03T12:19:39;11.50;93.50
6581;DHT22;3324;50.796;7.228;2023-04-03T12:22:12;11.60;87.10
6581;DHT22;3324;50.796;7.228;2023-04-03T12:24:44;11.60;82.70
6581;DHT22;3324;50.796;7.228;2023-04-03T12:27:24;11.70;85.90
6581;DHT22;3324;50.796;7.228;2023-04-03T12:32:54;12.00;82.90
6581;DHT22;3324;50.796;7.228;2023-04-03T12:41:23;12.10;80.50
6581;DHT22;3324;50.796;7.228;2023-04-03T12:46:42;11.60;79.40
6581;DHT22;3324;50.796;7.228;2023-04-03T12:51:55;11.40;75.90
6581;DHT22;3324;50.796;7.228;2023-04-03T12:54:37;11.10;76.70
6581;DHT22;3324;50.796;7.228;2023-04-03T12:59:40;11.20;76.70
6581;DHT22;3324;50.796;7.228;2023-04-03T13:02:35;11.30;77.90
6581;DHT22;3324;50.796;7.228;2023-04-03T13:05:09;11.40;78.30
6581;DHT22;3324;50.796;7.228;2023-04-03T13:07:40;11.20;76.70
6581;DHT22;3324;50.796;7.228;2023-04-03T13:12:52;11.10;77.80
6581;DHT22;3324;50.796;7.228;2023-04-03T13:15:29;11.10;78.60
6581;DHT22;3324;50.796;7.228;2023-04-03T13:17:56;11.30;79.10
6581;DHT22;3324;50.796;7.228;2023-04-03T13:20:29;11.40;76.30
6581;DHT22;3324;50.796;7.228;2023-04-03T13:23:07;11.70;78.00
6581;DHT22;3324;50.796;7.228;2023-04-03T13:25:37;11.60;76.20
6581;DHT22;3324;50.796;7.228;2023-04-03T13:28:07;11.50;77.00
6581;DHT22;3324;50.796;7.228;2023-04-03T13:30:35;11.40;75.90
6581;DHT22;3324;50.796;7.228;2023-04-03T13:33:04;11.30;77.00
6581;DHT22;3324;50.796;7.228;2023-04-03T13:35:41;11.40;76.10
6581;DHT22;3324;50.796;7.228;2023-04-03T13:40:53;11.40;78.30
6581;DHT22;3324;50.796;7.228;2023-04-03T13:43:24;11.40;77.70
6581;DHT22;3324;50.796;7.228;2023-04-03T13:51:59;11.50;75.40
6581;DHT22;3324;50.796;7.228;2023-04-03T13:54:34;11.50;75.10
6581;DHT22;3324;50.796;7.228;2023-04-03T13:57:01;11.50;76.00
6581;DHT22;3324;50.796;7.228;2023-04-03T13:59:30;11.70;77.30
6581;DHT22;3324;50.796;7.228;2023-04-03T14:04:30;11.60;75.50
6581;DHT22;3324;50.796;7.228;2023-04-03T14:06:56;11.40;76.40
6581;DHT22;3324;50.796;7.228;2023-04-03T14:09:24;11.30;76.40
6581;DHT22;3324;50.796;7.228;2023-04-03T14:11:58;11.40;78.70
6581;DHT22;3324;50.796;7.228;2023-04-03T14:14:31;11.50;76.20
6581;DHT22;3324;50.796;7.228;2023-04-03T14:16:59;11.60;77.10
6581;DHT22;3324;50.796;7.228;2023-04-03T14:19:28;11.80;75.80
6581;DHT22;3324;50.796;7.228;2023-04-03T14:21:55;11.90;78.60
6581;DHT22;3324;50.796;7.228;2023-04-03T14:24:21;12.00;77.90
6581;DHT22;3324;50.796;7.228;2023-04-03T14:26:47;12.00;75.20
6581;DHT22;3324;50.796;7.228;2023-04-03T14:29:14;12.10;76.60
6581;DHT22;3324;50.796;7.228;2023-04-03T14:31:42;12.10;77.80
6581;DHT22;3324;50.796;7.228;2023-04-03T14:34:10;12.30;76.60
6581;DHT22;3324;50.796;7.228;2023-04-03T14:36:36;12.30;73.40
6581;DHT22;3324;50.796;7.228;2023-04-03T14:39:03;12.20;74.60
6581;DHT22;3324;50.796;7.228;2023-04-03T14:41:29;11.90;73.90
6581;DHT22;3324;50.796;7.228;2023-04-03T14:43:55;12.00;73.70
6581;DHT22;3324;50.796;7.228;2023-04-03T14:46:31;11.50;73.70
6581;DHT22;3324;50.796;7.228;2023-04-03T14:48:57;11.50;74.50
6581;DHT22;3324;50.796;7.228;2023-04-03T14:51:23;11.60;78.50
6581;DHT22;3324;50.796;7.228;2023-04-03T14:53:49;11.70;75.80
6581;DHT22;3324;50.796;7.228;2023-04-03T14:56:23;11.70;77.00
6581;DHT22;3324;50.796;7.228;2023-04-03T14:58:49;11.80;74.10
6581;DHT22;3324;50.796;7.228;2023-04-03T15:01:18;11.70;77.00
6581;DHT22;3324;50.796;7.228;2023-04-03T15:03:44;11.80;75.10
6581;DHT22;3324;50.796;7.228;2023-04-03T15:06:11;11.80;76.00
6581;DHT22;3324;50.796;7.228;2023-04-03T15:08:37;11.80;76.90
6581;DHT22;3324;50.796;7.228;2023-04-03T15:11:03;11.90;76.70
6581;DHT22;3324;50.796;7.228;2023-04-03T15:13:29;11.90;76.50
6581;DHT22;3324;50.796;7.228;2023-04-03T15:15:54;12.10;74.40
6581;DHT22;3324;50.796;7.228;2023-04-03T15:18:26;12.10;74.10
6581;DHT22;3324;50.796;7.228;2023-04-03T15:20:53;12.00;72.30
6581;DHT22;3324;50.796;7.228;2023-04-03T15:23:20;11.80;74.80
6581;DHT22;3324;50.796;7.228;2023-04-03T15:25:51;11.90;74.00
6581;DHT22;3324;50.796;7.228;2023-04-03T15:30:52;11.90;74.50
6581;DHT22;3324;50.796;7.228;2023-04-03T15:33:19;11.80;75.30
6581;DHT22;3324;50.796;7.228;2023-04-03T15:35:45;11.70;73.20
6581;DHT22;3324;50.796;7.228;2023-04-03T15:38:11;11.50;73.90
6581;DHT22;3324;50.796;7.228;2023-04-03T15:40:36;11.40;74.90
6581;DHT22;3324;50.796;7.228;2023-04-03T15:43:02;11.30;75.40
6581;DHT22;3324;50.796;7.228;2023-04-03T15:45:29;11.20;74.60
6581;DHT22;3324;50.796;7.228;2023-04-03T15:47:56;11.10;73.70
6581;DHT22;3324;50.796;7.228;2023-04-03T15:50:22;11.00;73.80
6581;DHT22;3324;50.796;7.228;2023-04-03T15:52:50;10.80;74.10
6581;DHT22;3324;50.796;7.228;2023-04-03T15:55:21;10.80;75.30
6581;DHT22;3324;50.796;7.228;2023-04-03T15:57:47;10.80;75.90
6581;DHT22;3324;50.796;7.228;2023-04-03T16:00:13;10.80;75.70
6581;DHT22;3324;50.796;7.228;2023-04-03T16:02:39;10.80;76.40
6581;DHT22;3324;50.796;7.228;2023-04-03T16:05:05;10.70;74.70
6581;DHT22;3324;50.796;7.228;2023-04-03T16:07:31;10.70;75.10
6581;DHT22;3324;50.796;7.228;2023-04-03T16:09:57;10.50;74.60
6581;DHT22;3324;50.796;7.228;2023-04-03T16:12:23;10.40;76.60
6581;DHT22;3324;50.796;7.228;2023-04-03T16:14:48;10.40;76.90
6581;DHT22;3324;50.796;7.228;2023-04-03T16:17:14;10.30;78.30
6581;DHT22;3324;50.796;7.228;2023-04-03T16:19:40;10.30;78.00
6581;DHT22;3324;50.796;7.228;2023-04-03T16:22:05;10.20;78.20
6581;DHT22;3324;50.796;7.228;2023-04-03T16:24:31;10.30;77.60
6581;DHT22;3324;50.796;7.228;2023-04-03T16:26:57;10.30;78.20
6581;DHT22;3324;50.796;7.228;2023-04-03T16:29:23;10.30;76.90
6581;DHT22;3324;50.796;7.228;2023-04-03T16:31:49;10.20;76.60
6581;DHT22;3324;50.796;7.228;2023-04-03T16:34:15;10.20;76.10
6581;DHT22;3324;50.796;7.228;2023-04-03T16:36:41;10.10;75.90
6581;DHT22;3324;50.796;7.228;2023-04-03T16:39:07;10.10;78.40
6581;DHT22;3324;50.796;7.228;2023-04-03T16:41:35;10.10;79.90
6581;DHT22;3324;50.796;7.228;2023-04-03T16:44:00;10.00;78.80
6581;DHT22;3324;50.796;7.228;2023-04-03T16:46:26;10.00;79.50
6581;DHT22;3324;50.796;7.228;2023-04-03T16:48:51;10.00;80.60
6581;DHT22;3324;50.796;7.228;2023-04-03T16:51:17;10.00;80.50
6581;DHT22;3324;50.796;7.228;2023-04-03T16:53:43;9.90;81.50
6581;DHT22;3324;50.796;7.228;2023-04-03T16:56:08;9.80;81.60
6581;DHT22;3324;50.796;7.228;2023-04-03T16:58:34;9.80;81.80
6581;DHT22;3324;50.796;7.228;2023-04-03T17:01:12;9.70;80.60
6581;DHT22;3324;50.796;7.228;2023-04-03T17:03:38;9.70;82.60
6581;DHT22;3324;50.796;7.228;2023-04-03T17:06:04;9.60;79.70
6581;DHT22;3324;50.796;7.228;2023-04-03T17:08:30;9.50;79.50
6581;DHT22;3324;50.796;7.228;2023-04-03T17:10:55;9.50;80.30
6581;DHT22;3324;50.796;7.228;2023-04-03T17:13:21;9.40;81.00
6581;DHT22;3324;50.796;7.228;2023-04-03T17:15:47;9.30;81.70
6581;DHT22;3324;50.796;7.228;2023-04-03T17:18:12;9.20;82.10
6581;DHT22;3324;50.796;7.228;2023-04-03T17:20:38;9.20;82.30
6581;DHT22;3324;50.796;7.228;2023-04-03T17:23:04;9.20;82.50
6581;DHT22;3324;50.796;7.228;2023-04-03T17:25:30;9.20;83.60
6581;DHT22;3324;50.796;7.228;2023-04-03T17:27:56;9.20;84.70
6581;DHT22;3324;50.796;7.228;2023-04-03T17:30:22;9.10;82.40
6581;DHT22;3324;50.796;7.228;2023-04-03T17:32:48;9.10;82.80
6581;DHT22;3324;50.796;7.228;2023-04-03T17:35:13;9.10;85.80
6581;DHT22;3324;50.796;7.228;2023-04-03T17:37:39;9.10;85.10
6581;DHT22;3324;50.796;7.228;2023-04-03T17:40:05;9.10;84.80
6581;DHT22;3324;50.796;7.228;2023-04-03T17:42:31;9.00;83.80
6581;DHT22;3324;50.796;7.228;2023-04-03T17:44:57;9.00;85.20
6581;DHT22;3324;50.796;7.228;2023-04-03T17:47:22;8.90;86.80
6581;DHT22;3324;50.796;7.228;2023-04-03T17:49:50;8.80;86.10
6581;DHT22;3324;50.796;7.228;2023-04-03T17:52:16;8.80;87.90
6581;DHT22;3324;50.796;7.228;2023-04-03T17:54:41;8.80;87.90
6581;DHT22;3324;50.796;7.228;2023-04-03T17:57:07;8.70;87.40
6581;DHT22;3324;50.796;7.228;2023-04-03T17:59:33;8.70;86.00
6581;DHT22;3324;50.796;7.228;2023-04-03T18:01:59;8.60;86.10
6581;DHT22;3324;50.796;7.228;2023-04-03T18:04:24;8.60;86.10
6581;DHT22;3324;50.796;7.228;2023-04-03T18:06:51;8.60;86.30